sensor_id;sensor_type;location;lat;lon;timestamp;pressure;altitude;pressure_sealevel;temperature;humidity
77662;BME280;67292;52.136;5.424;2023-03-01T00:00:00;103442.97;;;-0.40;80.64
77662;BME280;67292;52.136;5.424;2023-03-01T00:02:26;103446.28;;;-0.44;80.32
77662;BME280;67292;52.136;5.424;2023-03-01T00:04:53;103448.88;;;-0.44;80.72
77662;BME280;67292;52.136;5.424;2023-03-01T00:07:19;103442.59;;;-0.47;80.71
77662;BME280;67292;52.136;5.424;2023-03-01T00:09:46;103440.78;;;-0.48;80.65
77662;BME280;67292;52.136;5.424;2023-03-01T00:12:12;103449.34;;;-0.51;80.67
77662;BME280;67292;52.136;5.424;2023-03-01T00:14:39;103451.88;;;-0.52;80.71
77662;BME280;67292;52.136;5.424;2023-03-01T00:17:06;103443.00;;;-0.56;80.75
77662;BME280;67292;52.136;5.424;2023-03-01T00:19:32;103447.31;;;-0.56;80.92
77662;BME280;67292;52.136;5.424;2023-03-01T00:21:59;103443.81;;;-0.57;80.81
77662;BME280;67292;52.136;5.424;2023-03-01T00:24:26;103445.44;;;-0.59;80.92
77662;BME280;67292;52.136;5.424;2023-03-01T00:26:54;103446.44;;;-0.57;81.36
77662;BME280;67292;52.136;5.424;2023-03-01T00:29:25;103441.84;;;-0.61;81.41
77662;BME280;67292;52.136;5.424;2023-03-01T00:31:52;103434.69;;;-0.65;81.19
77662;BME280;67292;52.136;5.424;2023-03-01T00:34:18;103433.00;;;-0.63;81.11
77662;BME280;67292;52.136;5.424;2023-03-01T00:36:45;103428.59;;;-0.64;81.59
77662;BME280;67292;52.136;5.424;2023-03-01T00:39:14;103426.84;;;-0.65;81.27
77662;BME280;67292;52.136;5.424;2023-03-01T00:41:41;103431.97;;;-0.66;81.28
77662;BME280;67292;52.136;5.424;2023-03-01T00:44:09;103430.09;;;-0.69;81.20
77662;BME280;67292;52.136;5.424;2023-03-01T00:46:37;103431.88;;;-0.68;81.48
77662;BME280;67292;52.136;5.424;2023-03-01T00:49:03;103434.41;;;-0.69;81.71
77662;BME280;67292;52.136;5.424;2023-03-01T00:51:31;103437.84;;;-0.70;81.95
77662;BME280;67292;52.136;5.424;2023-03-01T00:54:00;103423.56;;;-0.77;81.97
77662;BME280;67292;52.136;5.424;2023-03-01T00:56:29;103433.25;;;-0.75;82.25
77662;BME280;67292;52.136;5.424;2023-03-01T00:58:56;103423.38;;;-0.80;81.41
77662;BME280;67292;52.136;5.424;2023-03-01T01:01:26;103426.97;;;-0.78;81.83
77662;BME280;67292;52.136;5.424;2023-03-01T01:03:57;103412.56;;;-0.86;81.89
77662;BME280;67292;52.136;5.424;2023-03-01T01:06:30;103418.88;;;-0.83;81.77
77662;BME280;67292;52.136;5.424;2023-03-01T01:08:58;103407.22;;;-0.89;82.13
77662;BME280;67292;52.136;5.424;2023-03-01T01:11:27;103401.09;;;-0.90;82.11
77662;BME280;67292;52.136;5.424;2023-03-01T01:13:55;103402.72;;;-0.92;82.31
77662;BME280;67292;52.136;5.424;2023-03-01T01:16:25;103406.31;;;-0.90;81.79
77662;BME280;67292;52.136;5.424;2023-03-01T01:18:52;103400.09;;;-0.92;82.22
77662;BME280;67292;52.136;5.424;2023-03-01T01:21:21;103394.78;;;-0.93;82.10
77662;BME280;67292;52.136;5.424;2023-03-01T01:23:50;103402.53;;;-0.95;82.04
77662;BME280;67292;52.136;5.424;2023-03-01T01:26:23;103397.31;;;-0.95;81.90
77662;BME280;67292;52.136;5.424;2023-03-01T01:28:51;103392.84;;;-0.97;82.69
77662;BME280;67292;52.136;5.424;2023-03-01T01:31:18;103388.34;;;-1.00;82.73
77662;BME280;67292;52.136;5.424;2023-03-01T01:33:45;103380.41;;;-1.01;82.59
77662;BME280;67292;52.136;5.424;2023-03-01T01:36:12;103379.44;;;-1.03;83.54
77662;BME280;67292;52.136;5.424;2023-03-01T01:38:39;103385.47;;;-1.04;82.78
77662;BME280;67292;52.136;5.424;2023-03-01T01:41:06;103386.13;;;-1.08;83.11
77662;BME280;67292;52.136;5.424;2023-03-01T01:43:39;103382.63;;;-1.09;83.32
77662;BME280;67292;52.136;5.424;2023-03-01T01:46:13;103391.28;;;-1.10;83.47
77662;BME280;67292;52.136;5.424;2023-03-01T01:48:46;103376.25;;;-1.14;82.51
77662;BME280;67292;52.136;5.424;2023-03-01T01:51:20;103377.94;;;-1.15;82.99
77662;BME280;67292;52.136;5.424;2023-03-01T01:53:53;103371.50;;;-1.21;83.59
77662;BME280;67292;52.136;5.424;2023-03-01T01:56:24;103382.19;;;-1.17;83.18
77662;BME280;67292;52.136;5.424;2023-03-01T01:58:54;103368.63;;;-1.26;83.44
77662;BME280;67292;52.136;5.424;2023-03-01T02:01:21;103376.81;;;-1.20;83.24
77662;BME280;67292;52.136;5.424;2023-03-01T02:03:48;103372.31;;;-1.22;83.78
77662;BME280;67292;52.136;5.424;2023-03-01T02:06:39;103359.97;;;-1.25;83.45
77662;BME280;67292;52.136;5.424;2023-03-01T02:12:11;103364.88;;;-1.31;83.65
77662;BME280;67292;52.136;5.424;2023-03-01T02:14:38;103372.06;;;-1.27;83.36
77662;BME280;67292;52.136;5.424;2023-03-01T02:17:04;103349.75;;;-1.36;82.96
77662;BME280;67292;52.136;5.424;2023-03-01T02:22:35;103352.28;;;-1.38;84.20
77662;BME280;67292;52.136;5.424;2023-03-01T02:25:07;103372.72;;;-1.31;84.09
77662;BME280;67292;52.136;5.424;2023-03-01T02:30:23;103361.19;;;-1.34;83.68
77662;BME280;67292;52.136;5.424;2023-03-01T02:32:53;103355.97;;;-1.34;83.86
77662;BME280;67292;52.136;5.424;2023-03-01T02:35:21;103354.88;;;-1.38;83.98
77662;BME280;67292;52.136;5.424;2023-03-01T02:37:47;103348.53;;;-1.43;84.13
77662;BME280;67292;52.136;5.424;2023-03-01T02:40:17;103348.53;;;-1.43;84.07
77662;BME280;67292;52.136;5.424;2023-03-01T02:42:55;103346.81;;;-1.42;84.08
77662;BME280;67292;52.136;5.424;2023-03-01T02:45:22;103346.75;;;-1.44;84.26
77662;BME280;67292;52.136;5.424;2023-03-01T02:47:49;103337.00;;;-1.47;84.51
77662;BME280;67292;52.136;5.424;2023-03-01T02:50:43;103335.88;;;-1.52;84.37
77662;BME280;67292;52.136;5.424;2023-03-01T02:53:34;103335.13;;;-1.49;84.20
77662;BME280;67292;52.136;5.424;2023-03-01T02:56:03;103334.22;;;-1.50;84.10
77662;BME280;67292;52.136;5.424;2023-03-01T02:58:30;103331.47;;;-1.53;84.09
77662;BME280;67292;52.136;5.424;2023-03-01T03:00:56;103334.09;;;-1.53;84.38
77662;BME280;67292;52.136;5.424;2023-03-01T03:03:23;103339.31;;;-1.53;84.08
77662;BME280;67292;52.136;5.424;2023-03-01T03:05:50;103332.19;;;-1.55;83.72
77662;BME280;67292;52.136;5.424;2023-03-01T03:08:16;103331.28;;;-1.56;84.46
77662;BME280;67292;52.136;5.424;2023-03-01T03:10:50;103331.19;;;-1.57;85.03
77662;BME280;67292;52.136;5.424;2023-03-01T03:13:17;103314.94;;;-1.68;84.82
77662;BME280;67292;52.136;5.424;2023-03-01T03:15:44;103325.72;;;-1.62;84.55
77662;BME280;67292;52.136;5.424;2023-03-01T03:18:15;103333.41;;;-1.65;83.97
77662;BME280;67292;52.136;5.424;2023-03-01T03:20:43;103324.66;;;-1.65;84.74
77662;BME280;67292;52.136;5.424;2023-03-01T03:23:11;103315.03;;;-1.66;84.58
77662;BME280;67292;52.136;5.424;2023-03-01T03:25:38;103315.03;;;-1.66;85.13
77662;BME280;67292;52.136;5.424;2023-03-01T03:28:06;103315.94;;;-1.66;85.05
77662;BME280;67292;52.136;5.424;2023-03-01T03:30:38;103321.06;;;-1.67;84.29
77662;BME280;67292;52.136;5.424;2023-03-01T03:33:06;103317.28;;;-1.72;85.38
77662;BME280;67292;52.136;5.424;2023-03-01T03:35:39;103328.63;;;-1.72;84.62
77662;BME280;67292;52.136;5.424;2023-03-01T03:38:08;103318.03;;;-1.75;84.61
77662;BME280;67292;52.136;5.424;2023-03-01T03:40:47;103320.47;;;-1.78;85.01
77662;BME280;67292;52.136;5.424;2023-03-01T03:43:20;103321.19;;;-1.80;84.58
77662;BME280;67292;52.136;5.424;2023-03-01T03:45:49;103325.41;;;-1.83;84.21
77662;BME280;67292;52.136;5.424;2023-03-01T03:48:17;103321.84;;;-1.85;84.42
77662;BME280;67292;52.136;5.424;2023-03-01T03:50:49;103316.53;;;-1.86;85.03
77662;BME280;67292;52.136;5.424;2023-03-01T03:53:16;103305.03;;;-1.90;84.99
77662;BME280;67292;52.136;5.424;2023-03-01T03:55:43;103303.03;;;-1.94;84.58
77662;BME280;67292;52.136;5.424;2023-03-01T03:58:11;103308.34;;;-1.92;85.24
77662;BME280;67292;52.136;5.424;2023-03-01T04:00:42;103297.69;;;-1.97;84.82
77662;BME280;67292;52.136;5.424;2023-03-01T04:03:12;103302.72;;;-2.00;85.33
77662;BME280;67292;52.136;5.424;2023-03-01T04:05:39;103308.81;;;-1.99;84.94
77662;BME280;67292;52.136;5.424;2023-03-01T04:08:07;103302.63;;;-2.01;85.67
77662;BME280;67292;52.136;5.424;2023-03-01T04:10:40;103312.44;;;-1.97;85.51
77662;BME280;67292;52.136;5.424;2023-03-01T04:13:11;103313.66;;;-2.05;85.23
77662;BME280;67292;52.136;5.424;2023-03-01T04:15:39;103312.97;;;-2.03;84.84
77662;BME280;67292;52.136;5.424;2023-03-01T04:18:06;103312.81;;;-2.06;85.11
77662;BME280;67292;52.136;5.424;2023-03-01T04:20:35;103312.72;;;-2.07;85.01
77662;BME280;67292;52.136;5.424;2023-03-01T04:23:08;103312.63;;;-2.09;85.52
77662;BME280;67292;52.136;5.424;2023-03-01T04:25:47;103320.44;;;-2.09;85.17
77662;BME280;67292;52.136;5.424;2023-03-01T04:28:30;103315.94;;;-2.11;84.93
77662;BME280;67292;52.136;5.424;2023-03-01T04:30:58;103319.25;;;-2.14;85.03
77662;BME280;67292;52.136;5.424;2023-03-01T04:33:25;103320.88;;;-2.16;85.07
77662;BME280;67292;52.136;5.424;2023-03-01T04:35:52;103319.00;;;-2.18;85.50
77662;BME280;67292;52.136;5.424;2023-03-01T04:38:20;103316.31;;;-2.20;85.91
77662;BME280;67292;52.136;5.424;2023-03-01T04:40:47;103315.41;;;-2.21;85.08
77662;BME280;67292;52.136;5.424;2023-03-01T04:43:14;103310.00;;;-2.24;85.75
77662;BME280;67292;52.136;5.424;2023-03-01T04:45:41;103303.56;;;-2.30;85.13
77662;BME280;67292;52.136;5.424;2023-03-01T04:48:08;103301.94;;;-2.28;86.11
77662;BME280;67292;52.136;5.424;2023-03-01T04:50:35;103304.28;;;-2.33;85.94
77662;BME280;67292;52.136;5.424;2023-03-01T04:53:02;103305.97;;;-2.33;86.12
77662;BME280;67292;52.136;5.424;2023-03-01T04:55:29;103296.38;;;-2.34;85.49
77662;BME280;67292;52.136;5.424;2023-03-01T04:57:56;103297.16;;;-2.35;85.99
77662;BME280;67292;52.136;5.424;2023-03-01T05:00:23;103280.81;;;-2.47;85.57
77662;BME280;67292;52.136;5.424;2023-03-01T05:02:52;103283.69;;;-2.43;85.56
77662;BME280;67292;52.136;5.424;2023-03-01T05:05:31;103281.00;;;-2.44;86.06
77662;BME280;67292;52.136;5.424;2023-03-01T05:08:00;103274.78;;;-2.46;85.28
77662;BME280;67292;52.136;5.424;2023-03-01T05:10:30;103271.28;;;-2.47;85.34
77662;BME280;67292;52.136;5.424;2023-03-01T05:12:58;103263.31;;;-2.50;85.74
77662;BME280;67292;52.136;5.424;2023-03-01T05:15:26;103273.66;;;-2.51;85.71
77662;BME280;67292;52.136;5.424;2023-03-01T05:17:55;103270.84;;;-2.54;86.57
77662;BME280;67292;52.136;5.424;2023-03-01T05:20:29;103267.25;;;-2.57;85.67
77662;BME280;67292;52.136;5.424;2023-03-01T05:22:59;103262.03;;;-2.57;85.82
77662;BME280;67292;52.136;5.424;2023-03-01T05:25:27;103258.44;;;-2.59;85.80
77662;BME280;67292;52.136;5.424;2023-03-01T05:27:53;103246.06;;;-2.63;86.09
77662;BME280;67292;52.136;5.424;2023-03-01T05:30:20;103247.06;;;-2.61;85.73
77662;BME280;67292;52.136;5.424;2023-03-01T05:32:50;103247.69;;;-2.65;85.94
77662;BME280;67292;52.136;5.424;2023-03-01T05:35:22;103254.69;;;-2.64;86.54
77662;BME280;67292;52.136;5.424;2023-03-01T05:37:49;103233.47;;;-2.70;86.02
77662;BME280;67292;52.136;5.424;2023-03-01T05:40:19;103239.69;;;-2.68;85.57
77662;BME280;67292;52.136;5.424;2023-03-01T05:42:56;103233.41;;;-2.71;86.65
77662;BME280;67292;52.136;5.424;2023-03-01T05:45:25;103229.00;;;-2.72;86.72
77662;BME280;67292;52.136;5.424;2023-03-01T05:47:53;103217.22;;;-2.80;86.16
77662;BME280;67292;52.136;5.424;2023-03-01T05:50:27;103224.31;;;-2.78;86.40
77662;BME280;67292;52.136;5.424;2023-03-01T05:55:32;103226.13;;;-2.77;85.72
77662;BME280;67292;52.136;5.424;2023-03-01T05:58:04;103221.53;;;-2.81;86.04
77662;BME280;67292;52.136;5.424;2023-03-01T06:00:32;103225.22;;;-2.77;86.45
77662;BME280;67292;52.136;5.424;2023-03-01T06:02:59;103225.03;;;-2.80;86.79
77662;BME280;67292;52.136;5.424;2023-03-01T06:05:27;103224.22;;;-2.79;86.07
77662;BME280;67292;52.136;5.424;2023-03-01T06:07:54;103220.56;;;-2.83;86.14
77662;BME280;67292;52.136;5.424;2023-03-01T06:10:22;103216.06;;;-2.85;86.72
77662;BME280;67292;52.136;5.424;2023-03-01T06:12:49;103209.78;;;-2.89;86.75
77662;BME280;67292;52.136;5.424;2023-03-01T06:15:16;103223.06;;;-2.84;86.45
77662;BME280;67292;52.136;5.424;2023-03-01T06:17:45;103226.47;;;-2.85;86.88
77662;BME280;67292;52.136;5.424;2023-03-01T06:20:18;103228.09;;;-2.87;86.90
77662;BME280;67292;52.136;5.424;2023-03-01T06:22:46;103228.81;;;-2.90;86.11
77662;BME280;67292;52.136;5.424;2023-03-01T06:25:18;103230.59;;;-2.89;87.33
77662;BME280;67292;52.136;5.424;2023-03-01T06:27:45;103225.25;;;-2.92;86.19
77662;BME280;67292;52.136;5.424;2023-03-01T06:30:15;103230.44;;;-2.92;86.92
77662;BME280;67292;52.136;5.424;2023-03-01T06:32:42;103228.72;;;-2.91;86.45
77662;BME280;67292;52.136;5.424;2023-03-01T06:35:14;103237.34;;;-2.92;87.38
77662;BME280;67292;52.136;5.424;2023-03-01T06:37:41;103233.84;;;-2.93;87.37
77662;BME280;67292;52.136;5.424;2023-03-01T06:40:09;103237.34;;;-2.92;87.00
77662;BME280;67292;52.136;5.424;2023-03-01T06:42:39;103237.34;;;-2.92;86.80
77662;BME280;67292;52.136;5.424;2023-03-01T06:45:09;103231.31;;;-2.91;87.07
77662;BME280;67292;52.136;5.424;2023-03-01T06:47:35;103227.91;;;-2.90;86.53
77662;BME280;67292;52.136;5.424;2023-03-01T06:50:03;103228.00;;;-2.89;87.12
77662;BME280;67292;52.136;5.424;2023-03-01T06:52:30;103236.91;;;-2.85;87.09
77662;BME280;67292;52.136;5.424;2023-03-01T06:54:57;103227.19;;;-2.88;87.69
77662;BME280;67292;52.136;5.424;2023-03-01T06:57:23;103230.09;;;-2.83;87.60
77662;BME280;67292;52.136;5.424;2023-03-01T06:59:50;103229.28;;;-2.82;87.27
77662;BME280;67292;52.136;5.424;2023-03-01T07:02:17;103227.72;;;-2.79;87.72
77662;BME280;67292;52.136;5.424;2023-03-01T07:04:44;103231.31;;;-2.77;87.19
77662;BME280;67292;52.136;5.424;2023-03-01T07:07:11;103228.91;;;-2.74;87.24
77662;BME280;67292;52.136;5.424;2023-03-01T07:09:37;103226.41;;;-2.72;87.93
77662;BME280;67292;52.136;5.424;2023-03-01T07:12:04;103223.06;;;-2.70;87.46
77662;BME280;67292;52.136;5.424;2023-03-01T07:14:31;103231.06;;;-2.67;88.67
77662;BME280;67292;52.136;5.424;2023-03-01T07:16:58;103234.75;;;-2.63;88.95
77662;BME280;67292;52.136;5.424;2023-03-01T07:19:25;103239.31;;;-2.59;88.51
77662;BME280;67292;52.136;5.424;2023-03-01T07:21:51;103237.78;;;-2.55;88.19
77662;BME280;67292;52.136;5.424;2023-03-01T07:24:18;103238.97;;;-2.50;87.24
77662;BME280;67292;52.136;5.424;2023-03-01T07:26:48;103236.69;;;-2.44;88.68
77662;BME280;67292;52.136;5.424;2023-03-01T07:29:15;103239.53;;;-2.25;87.94
77662;BME280;67292;52.136;5.424;2023-03-01T07:31:42;103230.16;;;-2.07;87.40
77662;BME280;67292;52.136;5.424;2023-03-01T07:34:09;103241.00;;;-1.68;85.87
77662;BME280;67292;52.136;5.424;2023-03-01T07:36:37;103237.34;;;-1.39;84.72
77662;BME280;67292;52.136;5.424;2023-03-01T07:39:05;103239.44;;;-1.16;84.54
77662;BME280;67292;52.136;5.424;2023-03-01T07:41:32;103243.78;;;-1.00;84.71
77662;BME280;67292;52.136;5.424;2023-03-01T07:43:59;103248.75;;;-0.89;85.26
77662;BME280;67292;52.136;5.424;2023-03-01T07:46:26;103244.72;;;-0.82;84.73
77662;BME280;67292;52.136;5.424;2023-03-01T07:48:52;103244.97;;;-0.78;85.01
77662;BME280;67292;52.136;5.424;2023-03-01T07:51:19;103248.84;;;-0.69;84.91
77662;BME280;67292;52.136;5.424;2023-03-01T07:53:48;103242.88;;;-0.67;85.71
77662;BME280;67292;52.136;5.424;2023-03-01T07:56:16;103240.56;;;-0.61;85.67
77662;BME280;67292;52.136;5.424;2023-03-01T07:58:45;103244.97;;;-0.60;86.22
77662;BME280;67292;52.136;5.424;2023-03-01T08:01:14;103244.31;;;-0.56;85.51
77662;BME280;67292;52.136;5.424;2023-03-01T08:03:41;103246.16;;;-0.53;85.70
77662;BME280;67292;52.136;5.424;2023-03-01T08:06:09;103245.69;;;-0.46;85.24
77662;BME280;67292;52.136;5.424;2023-03-01T08:08:37;103242.31;;;-0.44;85.07
77662;BME280;67292;52.136;5.424;2023-03-01T08:11:06;103247.84;;;-0.38;85.44
77662;BME280;67292;52.136;5.424;2023-03-01T08:13:34;103237.38;;;-0.38;85.52
77662;BME280;67292;52.136;5.424;2023-03-01T08:16:05;103243.81;;;-0.31;85.21
77662;BME280;67292;52.136;5.424;2023-03-01T08:18:32;103245.69;;;-0.28;85.05
77662;BME280;67292;52.136;5.424;2023-03-01T08:21:06;103240.69;;;-0.24;85.08
77662;BME280;67292;52.136;5.424;2023-03-01T08:23:34;103240.06;;;-0.18;84.17
77662;BME280;67292;52.136;5.424;2023-03-01T08:28:35;103237.97;;;-0.08;84.11
77662;BME280;67292;52.136;5.424;2023-03-01T08:31:02;103236.63;;;0.00;83.93
77662;BME280;67292;52.136;5.424;2023-03-01T08:33:29;103233.41;;;0.06;83.44
77662;BME280;67292;52.136;5.424;2023-03-01T08:36:05;103230.16;;;0.12;83.46
77662;BME280;67292;52.136;5.424;2023-03-01T08:38:34;103229.56;;;0.17;83.75
77662;BME280;67292;52.136;5.424;2023-03-01T08:41:02;103228.13;;;0.24;83.24
77662;BME280;67292;52.136;5.424;2023-03-01T08:43:29;103224.03;;;0.29;83.75
77662;BME280;67292;52.136;5.424;2023-03-01T08:45:56;103218.16;;;0.34;83.21
77662;BME280;67292;52.136;5.424;2023-03-01T08:48:23;103221.91;;;0.40;83.91
77662;BME280;67292;52.136;5.424;2023-03-01T08:50:50;103218.72;;;0.47;83.37
77662;BME280;67292;52.136;5.424;2023-03-01T08:53:17;103217.22;;;0.52;83.39
77662;BME280;67292;52.136;5.424;2023-03-01T08:55:43;103208.94;;;0.62;82.75
77662;BME280;67292;52.136;5.424;2023-03-01T08:58:10;103206.06;;;0.75;83.33
77662;BME280;67292;52.136;5.424;2023-03-01T09:00:36;103207.25;;;1.02;83.21
77662;BME280;67292;52.136;5.424;2023-03-01T09:03:03;103207.53;;;1.50;81.85
77662;BME280;67292;52.136;5.424;2023-03-01T09:05:33;103204.31;;;2.23;81.01
77662;BME280;67292;52.136;5.424;2023-03-01T09:08:00;103192.00;;;2.93;78.86
77662;BME280;67292;52.136;5.424;2023-03-01T09:10:27;103180.31;;;3.61;77.87
77662;BME280;67292;52.136;5.424;2023-03-01T09:12:53;103181.56;;;4.29;77.18
77662;BME280;67292;52.136;5.424;2023-03-01T09:15:20;103167.50;;;4.91;76.40
77662;BME280;67292;52.136;5.424;2023-03-01T09:17:46;103162.69;;;5.44;73.21
77662;BME280;67292;52.136;5.424;2023-03-01T09:20:13;103163.00;;;5.92;74.12
77662;BME280;67292;52.136;5.424;2023-03-01T09:22:40;103164.94;;;6.41;73.64
77662;BME280;67292;52.136;5.424;2023-03-01T09:25:07;103154.38;;;6.86;72.76
77662;BME280;67292;52.136;5.424;2023-03-01T09:27:33;103148.09;;;7.29;71.98
77662;BME280;67292;52.136;5.424;2023-03-01T09:30:00;103136.38;;;7.69;72.42
77662;BME280;67292;52.136;5.424;2023-03-01T09:32:30;103136.94;;;8.09;72.80
77662;BME280;67292;52.136;5.424;2023-03-01T09:34:57;103128.47;;;8.36;70.41
77662;BME280;67292;52.136;5.424;2023-03-01T09:37:34;103134.13;;;8.65;69.40
77662;BME280;67292;52.136;5.424;2023-03-01T09:40:04;103123.63;;;8.78;67.04
77662;BME280;67292;52.136;5.424;2023-03-01T09:42:34;103121.25;;;9.04;67.81
77662;BME280;67292;52.136;5.424;2023-03-01T09:45:11;103124.09;;;9.27;68.53
77662;BME280;67292;52.136;5.424;2023-03-01T09:47:42;103125.16;;;9.52;65.72
77662;BME280;67292;52.136;5.424;2023-03-01T10:06:51;103117.75;;;10.54;60.73
77662;BME280;67292;52.136;5.424;2023-03-01T10:09:22;103109.78;;;10.65;57.08
77662;BME280;67292;52.136;5.424;2023-03-01T10:11:53;103114.22;;;10.61;58.70
77662;BME280;67292;52.136;5.424;2023-03-01T10:14:35;103109.78;;;10.61;59.85
77662;BME280;67292;52.136;5.424;2023-03-01T10:17:24;103111.56;;;10.63;58.13
77662;BME280;67292;52.136;5.424;2023-03-01T10:19:52;103108.00;;;10.57;57.11
77662;BME280;67292;52.136;5.424;2023-03-01T10:22:21;103108.00;;;10.56;55.11
77662;BME280;67292;52.136;5.424;2023-03-01T10:24:51;103112.44;;;10.65;58.81
77662;BME280;67292;52.136;5.424;2023-03-01T10:27:26;103100.94;;;10.75;59.48
77662;BME280;67292;52.136;5.424;2023-03-01T10:32:44;103100.91;;;10.61;56.40
77662;BME280;67292;52.136;5.424;2023-03-01T10:35:21;103104.41;;;10.45;55.52
77662;BME280;67292;52.136;5.424;2023-03-01T10:40:24;103097.28;;;10.27;55.73
77662;BME280;67292;52.136;5.424;2023-03-01T10:42:51;103085.63;;;10.11;53.33
77662;BME280;67292;52.136;5.424;2023-03-01T10:45:32;103088.34;;;10.19;57.91
77662;BME280;67292;52.136;5.424;2023-03-01T10:50:48;103080.44;;;10.33;56.41
77662;BME280;67292;52.136;5.424;2023-03-01T10:58:28;103068.06;;;10.56;54.53
77662;BME280;67292;52.136;5.424;2023-03-01T11:01:45;103061.88;;;10.66;54.08
77662;BME280;67292;52.136;5.424;2023-03-01T11:06:36;103037.00;;;11.04;54.59
77662;BME280;67292;52.136;5.424;2023-03-01T11:09:23;103037.00;;;11.32;55.73
77662;BME280;67292;52.136;5.424;2023-03-01T11:11:56;103036.06;;;11.52;55.27
77662;BME280;67292;52.136;5.424;2023-03-01T11:14:33;103040.50;;;11.57;52.80
77662;BME280;67292;52.136;5.424;2023-03-01T11:17:14;103040.50;;;11.59;52.74
77662;BME280;67292;52.136;5.424;2023-03-01T11:19:42;103041.38;;;11.59;52.39
77662;BME280;67292;52.136;5.424;2023-03-01T11:22:21;103032.44;;;11.73;52.83
77662;BME280;67292;52.136;5.424;2023-03-01T11:24:54;103024.44;;;11.71;51.33
77662;BME280;67292;52.136;5.424;2023-03-01T11:27:41;103015.59;;;11.64;52.13
77662;BME280;67292;52.136;5.424;2023-03-01T11:30:24;103021.81;;;11.59;51.11
77662;BME280;67292;52.136;5.424;2023-03-01T11:35:45;103011.16;;;11.60;53.00
77662;BME280;67292;52.136;5.424;2023-03-01T11:38:24;103018.25;;;11.64;52.23
77662;BME280;67292;52.136;5.424;2023-03-01T11:52:09;103022.81;;;10.57;48.08
77662;BME280;67292;52.136;5.424;2023-03-01T11:54:54;103008.56;;;10.31;48.74
77662;BME280;67292;52.136;5.424;2023-03-01T11:57:45;103010.28;;;10.14;50.63
77662;BME280;67292;52.136;5.424;2023-03-01T12:03:33;103006.53;;;9.66;48.52
77662;BME280;67292;52.136;5.424;2023-03-01T12:09:27;103005.47;;;9.28;48.87
77662;BME280;67292;52.136;5.424;2023-03-01T12:14:59;103009.59;;;8.86;50.00
77662;BME280;67292;52.136;5.424;2023-03-01T12:20:57;103013.03;;;8.74;51.79
77662;BME280;67292;52.136;5.424;2023-03-01T12:24:06;103008.47;;;8.61;49.94
77662;BME280;67292;52.136;5.424;2023-03-01T12:29:51;103003.16;;;8.61;51.96
77662;BME280;67292;52.136;5.424;2023-03-01T12:32:46;103005.84;;;8.63;50.88
77662;BME280;67292;52.136;5.424;2023-03-01T12:43:46;102997.59;;;8.34;50.05
77662;BME280;67292;52.136;5.424;2023-03-01T12:49:19;102991.34;;;8.30;52.51
77662;BME280;67292;52.136;5.424;2023-03-01T12:52:57;102984.34;;;8.32;49.82
77662;BME280;67292;52.136;5.424;2023-03-01T13:00:46;102959.41;;;8.23;51.66
77662;BME280;67292;52.136;5.424;2023-03-01T13:03:38;102957.66;;;8.20;52.37
77662;BME280;67292;52.136;5.424;2023-03-01T13:06:19;102954.09;;;8.18;51.90
77662;BME280;67292;52.136;5.424;2023-03-01T13:17:51;102931.84;;;8.04;50.47
77662;BME280;67292;52.136;5.424;2023-03-01T13:20:21;102934.47;;;7.99;50.42
77662;BME280;67292;52.136;5.424;2023-03-01T13:23:08;102932.66;;;7.97;51.52
77662;BME280;67292;52.136;5.424;2023-03-01T13:26:00;102923.88;;;7.99;51.00
77662;BME280;67292;52.136;5.424;2023-03-01T13:28:48;102919.38;;;7.95;48.63
77662;BME280;67292;52.136;5.424;2023-03-01T13:33:43;102919.41;;;7.97;49.44
77662;BME280;67292;52.136;5.424;2023-03-01T13:38:56;102905.25;;;7.95;49.51
77662;BME280;67292;52.136;5.424;2023-03-01T13:49:59;102892.84;;;7.89;49.99
77662;BME280;67292;52.136;5.424;2023-03-01T13:52:42;102899.00;;;7.91;51.13
77662;BME280;67292;52.136;5.424;2023-03-01T13:58:00;102892.84;;;7.89;51.06
77662;BME280;67292;52.136;5.424;2023-03-01T14:00:29;102886.66;;;7.89;50.16
77662;BME280;67292;52.136;5.424;2023-03-01T14:08:39;102868.00;;;7.81;49.81
77662;BME280;67292;52.136;5.424;2023-03-01T14:17:13;102858.28;;;7.82;50.04
77662;BME280;67292;52.136;5.424;2023-03-01T14:19:47;102855.63;;;7.79;50.84
77662;BME280;67292;52.136;5.424;2023-03-01T14:22:18;102846.78;;;7.80;50.89
77662;BME280;67292;52.136;5.424;2023-03-01T14:24:50;102837.09;;;7.83;51.11
77662;BME280;67292;52.136;5.424;2023-03-01T14:27:18;102839.72;;;7.77;51.50
77662;BME280;67292;52.136;5.424;2023-03-01T14:29:55;102834.41;;;7.80;50.30
77662;BME280;67292;52.136;5.424;2023-03-01T14:32:28;102828.22;;;7.80;50.49
77662;BME280;67292;52.136;5.424;2023-03-01T14:34:57;102824.69;;;7.81;51.74
77662;BME280;67292;52.136;5.424;2023-03-01T14:37:33;102823.88;;;7.85;49.70
77662;BME280;67292;52.136;5.424;2023-03-01T14:40:04;102807.03;;;7.80;48.78
77662;BME280;67292;52.136;5.424;2023-03-01T14:42:34;102809.72;;;7.84;49.37
77662;BME280;67292;52.136;5.424;2023-03-01T14:45:03;102814.09;;;7.81;48.23
77662;BME280;67292;52.136;5.424;2023-03-01T14:47:34;102809.69;;;7.81;48.38
77662;BME280;67292;52.136;5.424;2023-03-01T14:50:09;102822.13;;;7.85;50.80
77662;BME280;67292;52.136;5.424;2023-03-01T14:52:40;102806.22;;;7.85;51.70
77662;BME280;67292;52.136;5.424;2023-03-01T14:55:41;102818.50;;;7.80;49.65
77662;BME280;67292;52.136;5.424;2023-03-01T14:58:17;102817.63;;;7.80;49.56
77662;BME280;67292;52.136;5.424;2023-03-01T15:00:54;102819.41;;;7.81;50.60
77662;BME280;67292;52.136;5.424;2023-03-01T15:03:31;102815.88;;;7.80;51.80
77662;BME280;67292;52.136;5.424;2023-03-01T15:06:01;102815.00;;;7.83;51.33
77662;BME280;67292;52.136;5.424;2023-03-01T15:08:31;102818.50;;;7.80;50.62
77662;BME280;67292;52.136;5.424;2023-03-01T15:13:40;102803.50;;;7.78;51.71
77662;BME280;67292;52.136;5.424;2023-03-01T15:16:13;102807.91;;;7.77;53.09
77662;BME280;67292;52.136;5.424;2023-03-01T15:19:00;102796.41;;;7.75;50.98
77662;BME280;67292;52.136;5.424;2023-03-01T15:21:32;102804.28;;;7.70;49.12
77662;BME280;67292;52.136;5.424;2023-03-01T15:24:06;102783.94;;;7.65;51.08